LOT3EM LSZH-EPWA
Flight info
| Callsign | LOT3EM |
|---|---|
| Flight time | 1h 26m |
| Altitude | 37000 |
| Route | DEGES Z2 XEBIX/N0447F370 N871 TULSI DCT MEBEK DCT NENUM N871 BEPAS DCT ELVOT DCT OKENO Q277 GOGUS DCT AGAVA |
| Aircraft | B38M/M-SDE1FGHILORVWXY/HB1 |
Departure
| Time | 2026-05-05 07:35 |
|---|---|
| Airport | Zürich Airport (LSZH) |
Arrival
| Time | 2026-05-05 09:02 |
|---|---|
| Airport | Warsaw Chopin Airport (EPWA) |
| Time | Latitude | Longitude | Altitude | Speed | Heading |
|---|---|---|---|---|---|
| 2026-05-05 07:00 | 47.46066 | 8.55299 | 1398 ft | 0 kts | 5° |
| 2026-05-05 07:26 | 47.46058 | 8.55298 | 1407 ft | 2 kts | 5° |
| 2026-05-05 07:26 | 47.46042 | 8.55296 | 1402 ft | 2 kts | 5° |
| 2026-05-05 07:26 | 47.46025 | 8.55294 | 1406 ft | 2 kts | 5° |
| 2026-05-05 07:26 | 47.46009 | 8.55292 | 1405 ft | 2 kts | 3° |
| 2026-05-05 07:27 | 47.45992 | 8.55292 | 1403 ft | 2 kts | 353° |
| 2026-05-05 07:27 | 47.45979 | 8.55302 | 1400 ft | 2 kts | 281° |
| 2026-05-05 07:27 | 47.45979 | 8.55306 | 1409 ft | 0 kts | 274° |
| 2026-05-05 07:30 | 47.45979 | 8.55305 | 1409 ft | 1 kts | 275° |
| 2026-05-05 07:30 | 47.45982 | 8.55261 | 1401 ft | 10 kts | 276° |
| 2026-05-05 07:31 | 47.45944 | 8.55144 | 1400 ft | 8 kts | 188° |
| 2026-05-05 07:31 | 47.45895 | 8.55229 | 1407 ft | 16 kts | 96° |
| 2026-05-05 07:31 | 47.45880 | 8.55439 | 1406 ft | 22 kts | 96° |
| 2026-05-05 07:31 | 47.45864 | 8.55662 | 1415 ft | 22 kts | 96° |
| 2026-05-05 07:32 | 47.45848 | 8.55884 | 1415 ft | 22 kts | 96° |
| 2026-05-05 07:32 | 47.45832 | 8.56109 | 1420 ft | 22 kts | 96° |
| 2026-05-05 07:32 | 47.45816 | 8.56334 | 1423 ft | 22 kts | 96° |
| 2026-05-05 07:32 | 47.45800 | 8.56562 | 1421 ft | 23 kts | 96° |
| 2026-05-05 07:33 | 47.45784 | 8.56796 | 1423 ft | 23 kts | 96° |
| 2026-05-05 07:33 | 47.45773 | 8.56948 | 1426 ft | 8 kts | 95° |
| 2026-05-05 07:33 | 47.45750 | 8.57018 | 1428 ft | 7 kts | 134° |
| 2026-05-05 07:33 | 47.45706 | 8.57033 | 1427 ft | 8 kts | 189° |
| 2026-05-05 07:34 | 47.45669 | 8.56954 | 1426 ft | 13 kts | 264° |
| 2026-05-05 07:34 | 47.45671 | 8.56884 | 1425 ft | 0 kts | 275° |
| 2026-05-05 07:34 | 47.45672 | 8.56869 | 1425 ft | 6 kts | 276° |
| 2026-05-05 07:34 | 47.45700 | 8.56481 | 1419 ft | 78 kts | 276° |
| 2026-05-05 07:35 | 47.45784 | 8.55303 | 1403 ft | 150 kts | 276° |
| 2026-05-05 07:35 | 47.45914 | 8.53556 | 1821 ft | 177 kts | 275° |
| 2026-05-05 07:35 | 47.46032 | 8.51794 | 2970 ft | 170 kts | 276° |
| 2026-05-05 07:35 | 47.46157 | 8.50042 | 3864 ft | 176 kts | 276° |
| 2026-05-05 07:36 | 47.46403 | 8.48213 | 4568 ft | 190 kts | 295° |
| 2026-05-05 07:36 | 47.47314 | 8.46725 | 5216 ft | 206 kts | 332° |
| 2026-05-05 07:36 | 47.48767 | 8.46284 | 5840 ft | 227 kts | 9° |
| 2026-05-05 07:36 | 47.50232 | 8.47301 | 6512 ft | 246 kts | 45° |
| 2026-05-05 07:37 | 47.51074 | 8.49570 | 7157 ft | 264 kts | 81° |
| 2026-05-05 07:37 | 47.50997 | 8.52346 | 7872 ft | 280 kts | 104° |
| 2026-05-05 07:37 | 47.50719 | 8.55207 | 8996 ft | 283 kts | 91° |
| 2026-05-05 07:37 | 47.50759 | 8.58130 | 10040 ft | 289 kts | 92° |
| 2026-05-05 07:38 | 47.50733 | 8.61141 | 10765 ft | 304 kts | 94° |
| 2026-05-05 07:38 | 47.50669 | 8.64356 | 11358 ft | 322 kts | 95° |
| 2026-05-05 07:38 | 47.50584 | 8.67754 | 12015 ft | 337 kts | 95° |
| 2026-05-05 07:38 | 47.50483 | 8.71284 | 12679 ft | 349 kts | 96° |
| 2026-05-05 07:39 | 47.50371 | 8.74879 | 13645 ft | 352 kts | 96° |
| 2026-05-05 07:39 | 47.50255 | 8.78519 | 14412 ft | 358 kts | 96° |
| 2026-05-05 07:39 | 47.50134 | 8.82214 | 15239 ft | 361 kts | 96° |
| 2026-05-05 07:39 | 47.50008 | 8.85951 | 16022 ft | 365 kts | 96° |
| 2026-05-05 07:40 | 47.49881 | 8.89730 | 16743 ft | 369 kts | 96° |
| 2026-05-05 07:40 | 47.49753 | 8.93481 | 17457 ft | 372 kts | 96° |
| 2026-05-05 07:40 | 47.49621 | 8.97310 | 18137 ft | 375 kts | 96° |
| 2026-05-05 07:40 | 47.49486 | 9.01185 | 18724 ft | 379 kts | 96° |
| 2026-05-05 07:41 | 47.49348 | 9.05101 | 19277 ft | 383 kts | 96° |
| 2026-05-05 07:41 | 47.49208 | 9.09057 | 19825 ft | 387 kts | 96° |
| 2026-05-05 07:41 | 47.49065 | 9.13041 | 20367 ft | 391 kts | 96° |
| 2026-05-05 07:41 | 47.48920 | 9.17071 | 20913 ft | 394 kts | 96° |
| 2026-05-05 07:42 | 47.48773 | 9.21088 | 21432 ft | 398 kts | 96° |
| 2026-05-05 07:42 | 47.48621 | 9.25183 | 21951 ft | 402 kts | 96° |
| 2026-05-05 07:42 | 47.48467 | 9.29328 | 22453 ft | 406 kts | 96° |
| 2026-05-05 07:42 | 47.48310 | 9.33510 | 22983 ft | 409 kts | 96° |
| 2026-05-05 07:43 | 47.48150 | 9.37720 | 23476 ft | 413 kts | 96° |
| 2026-05-05 07:43 | 47.47986 | 9.41973 | 23900 ft | 416 kts | 96° |
| 2026-05-05 07:43 | 47.47821 | 9.46254 | 24337 ft | 418 kts | 96° |
| 2026-05-05 07:43 | 47.47652 | 9.50552 | 24758 ft | 421 kts | 96° |
| 2026-05-05 07:44 | 47.47481 | 9.54896 | 25172 ft | 424 kts | 96° |
| 2026-05-05 07:44 | 47.47304 | 9.59206 | 25592 ft | 426 kts | 97° |
| 2026-05-05 07:44 | 47.47068 | 9.63571 | 25993 ft | 429 kts | 97° |
| 2026-05-05 07:44 | 47.46826 | 9.67992 | 26390 ft | 432 kts | 97° |
| 2026-05-05 07:45 | 47.46585 | 9.72410 | 26780 ft | 434 kts | 97° |
| 2026-05-05 07:45 | 47.46342 | 9.76882 | 27168 ft | 436 kts | 97° |
| 2026-05-05 07:45 | 47.46096 | 9.81355 | 27551 ft | 439 kts | 97° |
| 2026-05-05 07:45 | 47.45847 | 9.85870 | 27917 ft | 442 kts | 98° |
| 2026-05-05 07:46 | 47.45595 | 9.90403 | 28257 ft | 445 kts | 98° |
| 2026-05-05 07:46 | 47.45339 | 9.94967 | 28639 ft | 447 kts | 98° |
| 2026-05-05 07:46 | 47.45079 | 9.99563 | 28984 ft | 450 kts | 98° |
| 2026-05-05 07:46 | 47.44817 | 10.04181 | 29313 ft | 452 kts | 98° |
| 2026-05-05 07:47 | 47.44555 | 10.08755 | 29622 ft | 455 kts | 98° |
| 2026-05-05 07:47 | 47.44286 | 10.13426 | 29920 ft | 457 kts | 98° |
| 2026-05-05 07:47 | 47.44195 | 10.15004 | 30022 ft | 458 kts | 98° |
| 2026-05-05 07:48 | 47.44043 | 10.18250 | 30213 ft | 461 kts | 93° |
| 2026-05-05 07:48 | 47.44248 | 10.23011 | 30503 ft | 465 kts | 88° |
| 2026-05-05 07:48 | 47.44494 | 10.27779 | 30768 ft | 467 kts | 89° |
| 2026-05-05 07:48 | 47.44735 | 10.32583 | 31030 ft | 470 kts | 89° |
| 2026-05-05 07:49 | 47.44976 | 10.37344 | 31305 ft | 471 kts | 89° |
| 2026-05-05 07:49 | 47.45219 | 10.42183 | 31513 ft | 474 kts | 88° |
| 2026-05-05 07:49 | 47.45462 | 10.47047 | 31781 ft | 475 kts | 89° |
| 2026-05-05 07:49 | 47.45702 | 10.51912 | 32010 ft | 477 kts | 89° |
| 2026-05-05 07:50 | 47.45942 | 10.56813 | 32265 ft | 479 kts | 89° |
| 2026-05-05 07:50 | 47.46180 | 10.61727 | 32523 ft | 481 kts | 89° |
| 2026-05-05 07:50 | 47.46418 | 10.66660 | 32769 ft | 482 kts | 89° |
| 2026-05-05 07:50 | 47.46654 | 10.71607 | 33077 ft | 482 kts | 88° |
| 2026-05-05 07:51 | 47.47098 | 10.76493 | 33414 ft | 484 kts | 76° |
| 2026-05-05 07:51 | 47.48185 | 10.81201 | 33795 ft | 483 kts | 72° |
| 2026-05-05 07:51 | 47.49280 | 10.85836 | 34030 ft | 484 kts | 72° |
| 2026-05-05 07:51 | 47.50397 | 10.90525 | 34289 ft | 484 kts | 72° |
| 2026-05-05 07:52 | 47.51520 | 10.95201 | 34564 ft | 483 kts | 72° |
| 2026-05-05 07:52 | 47.52648 | 10.99888 | 34782 ft | 483 kts | 72° |
| 2026-05-05 07:52 | 47.53774 | 11.04578 | 35040 ft | 483 kts | 72° |
| 2026-05-05 07:52 | 47.54896 | 11.09247 | 35252 ft | 482 kts | 72° |
| 2026-05-05 07:53 | 47.56003 | 11.13861 | 35482 ft | 482 kts | 72° |
| 2026-05-05 07:53 | 47.57119 | 11.18525 | 35715 ft | 482 kts | 72° |
| 2026-05-05 07:53 | 47.58239 | 11.23215 | 35917 ft | 482 kts | 72° |
| 2026-05-05 07:53 | 47.59353 | 11.27887 | 36155 ft | 481 kts | 72° |
| 2026-05-05 07:54 | 47.60466 | 11.32566 | 36370 ft | 481 kts | 72° |
| 2026-05-05 07:54 | 47.61576 | 11.37244 | 36587 ft | 481 kts | 72° |
| 2026-05-05 07:54 | 47.62597 | 11.41965 | 36799 ft | 480 kts | 75° |
| 2026-05-05 07:54 | 47.63574 | 11.46693 | 36878 ft | 481 kts | 74° |
| 2026-05-05 07:55 | 47.65545 | 11.56154 | 36869 ft | 479 kts | 75° |
| 2026-05-05 07:55 | 47.67458 | 11.65550 | 36873 ft | 479 kts | 75° |
| 2026-05-05 07:56 | 47.69421 | 11.75000 | 36862 ft | 480 kts | 69° |
| 2026-05-05 07:56 | 47.70997 | 11.79342 | 36860 ft | 479 kts | 53° |
| 2026-05-05 07:56 | 47.73218 | 11.83031 | 36874 ft | 480 kts | 45° |
| 2026-05-05 07:57 | 47.77902 | 11.90020 | 36871 ft | 480 kts | 44° |
| 2026-05-05 07:57 | 47.82668 | 11.96981 | 36869 ft | 480 kts | 44° |
| 2026-05-05 07:58 | 47.87433 | 12.03916 | 36870 ft | 480 kts | 44° |
| 2026-05-05 07:58 | 47.92205 | 12.10878 | 36867 ft | 480 kts | 44° |
| 2026-05-05 07:59 | 47.96932 | 12.17793 | 36867 ft | 479 kts | 44° |
| 2026-05-05 07:59 | 48.01691 | 12.24773 | 36868 ft | 479 kts | 44° |
| 2026-05-05 08:00 | 48.06441 | 12.31760 | 36867 ft | 479 kts | 44° |
| 2026-05-05 08:00 | 48.11189 | 12.38763 | 36871 ft | 480 kts | 44° |
| 2026-05-05 08:01 | 48.15914 | 12.45752 | 36874 ft | 480 kts | 44° |
| 2026-05-05 08:01 | 48.20659 | 12.52785 | 36869 ft | 480 kts | 44° |
| 2026-05-05 08:02 | 48.25602 | 12.59498 | 36872 ft | 480 kts | 39° |
| 2026-05-05 08:02 | 48.30737 | 12.65897 | 36867 ft | 480 kts | 39° |
| 2026-05-05 08:03 | 48.35875 | 12.72285 | 36864 ft | 480 kts | 39° |
| 2026-05-05 08:03 | 48.40989 | 12.78658 | 36865 ft | 480 kts | 39° |
| 2026-05-05 08:04 | 48.46129 | 12.85083 | 36869 ft | 480 kts | 39° |
| 2026-05-05 08:04 | 48.51256 | 12.91507 | 36861 ft | 479 kts | 39° |
| 2026-05-05 08:05 | 48.56147 | 12.98346 | 36867 ft | 480 kts | 45° |
| 2026-05-05 08:05 | 48.60813 | 13.05544 | 36861 ft | 480 kts | 45° |
| 2026-05-05 08:06 | 48.65431 | 13.12718 | 36863 ft | 479 kts | 45° |
| 2026-05-05 08:06 | 48.70078 | 13.19959 | 36859 ft | 479 kts | 45° |
| 2026-05-05 08:07 | 48.74716 | 13.27206 | 36865 ft | 479 kts | 45° |
| 2026-05-05 08:07 | 48.79352 | 13.34471 | 36864 ft | 479 kts | 45° |
| 2026-05-05 08:08 | 48.83982 | 13.41747 | 36865 ft | 479 kts | 45° |
| 2026-05-05 08:08 | 48.88574 | 13.48981 | 36867 ft | 479 kts | 45° |
| 2026-05-05 08:09 | 48.93161 | 13.56327 | 36859 ft | 478 kts | 46° |
| 2026-05-05 08:09 | 48.97739 | 13.63679 | 36859 ft | 479 kts | 46° |
| 2026-05-05 08:10 | 49.02320 | 13.71056 | 36859 ft | 479 kts | 46° |
| 2026-05-05 08:10 | 49.06856 | 13.78382 | 36855 ft | 478 kts | 46° |
| 2026-05-05 08:11 | 49.11422 | 13.85777 | 36861 ft | 478 kts | 46° |
| 2026-05-05 08:11 | 49.15976 | 13.93173 | 36862 ft | 478 kts | 46° |
| 2026-05-05 08:12 | 49.20528 | 14.00587 | 36860 ft | 478 kts | 46° |
| 2026-05-05 08:12 | 49.25042 | 14.07962 | 36862 ft | 478 kts | 46° |
| 2026-05-05 08:13 | 49.29575 | 14.15388 | 36863 ft | 477 kts | 46° |
| 2026-05-05 08:13 | 49.34109 | 14.22838 | 36863 ft | 477 kts | 46° |
| 2026-05-05 08:14 | 49.38631 | 14.30291 | 36866 ft | 477 kts | 46° |
| 2026-05-05 08:14 | 49.43146 | 14.37751 | 36865 ft | 477 kts | 46° |
| 2026-05-05 08:15 | 49.47621 | 14.45167 | 36864 ft | 476 kts | 46° |
| 2026-05-05 08:15 | 49.52121 | 14.52648 | 36863 ft | 476 kts | 46° |
| 2026-05-05 08:16 | 49.56620 | 14.60149 | 36864 ft | 476 kts | 46° |
| 2026-05-05 08:16 | 49.61106 | 14.67648 | 36857 ft | 476 kts | 46° |
| 2026-05-05 08:17 | 49.65562 | 14.75122 | 36862 ft | 476 kts | 46° |
| 2026-05-05 08:17 | 49.70039 | 14.82650 | 36857 ft | 476 kts | 46° |
| 2026-05-05 08:18 | 49.74511 | 14.90193 | 36861 ft | 476 kts | 46° |
| 2026-05-05 08:18 | 49.78977 | 14.97749 | 36864 ft | 476 kts | 46° |
| 2026-05-05 08:19 | 49.83441 | 15.05322 | 36862 ft | 476 kts | 46° |
| 2026-05-05 08:19 | 49.87873 | 15.12862 | 36861 ft | 476 kts | 46° |
| 2026-05-05 08:20 | 49.92329 | 15.20468 | 36862 ft | 476 kts | 46° |
| 2026-05-05 08:20 | 49.96778 | 15.28083 | 36854 ft | 476 kts | 46° |
| 2026-05-05 08:21 | 50.01222 | 15.35714 | 36859 ft | 476 kts | 46° |
| 2026-05-05 08:21 | 50.05638 | 15.43317 | 36858 ft | 477 kts | 47° |
| 2026-05-05 08:22 | 50.10080 | 15.50989 | 36859 ft | 477 kts | 47° |
| 2026-05-05 08:22 | 50.14511 | 15.58664 | 36853 ft | 477 kts | 47° |
| 2026-05-05 08:23 | 50.18915 | 15.66316 | 36861 ft | 477 kts | 47° |
| 2026-05-05 08:23 | 50.23336 | 15.74019 | 36858 ft | 477 kts | 47° |
| 2026-05-05 08:24 | 50.27759 | 15.81750 | 36857 ft | 477 kts | 47° |
| 2026-05-05 08:24 | 50.32174 | 15.89491 | 36855 ft | 477 kts | 47° |
| 2026-05-05 08:25 | 50.36587 | 15.97252 | 36859 ft | 477 kts | 47° |
| 2026-05-05 08:25 | 50.40963 | 16.04970 | 36858 ft | 477 kts | 47° |
| 2026-05-05 08:26 | 50.45368 | 16.12762 | 36860 ft | 478 kts | 47° |
| 2026-05-05 08:26 | 50.49778 | 16.20582 | 36863 ft | 478 kts | 47° |
| 2026-05-05 08:27 | 50.54183 | 16.28416 | 36856 ft | 478 kts | 47° |
| 2026-05-05 08:27 | 50.58545 | 16.36196 | 36861 ft | 478 kts | 47° |
| 2026-05-05 08:28 | 50.62717 | 16.44339 | 36865 ft | 478 kts | 53° |
| 2026-05-05 08:28 | 50.66612 | 16.52851 | 36853 ft | 479 kts | 53° |
| 2026-05-05 08:29 | 50.70488 | 16.61380 | 36855 ft | 479 kts | 53° |
| 2026-05-05 08:30 | 50.76268 | 16.74153 | 36859 ft | 479 kts | 53° |
| 2026-05-05 08:30 | 50.80132 | 16.82727 | 36861 ft | 479 kts | 53° |
| 2026-05-05 08:31 | 50.83990 | 16.91317 | 36861 ft | 479 kts | 54° |
| 2026-05-05 08:31 | 50.87837 | 16.99911 | 36857 ft | 479 kts | 54° |
| 2026-05-05 08:32 | 50.91661 | 17.08480 | 36859 ft | 479 kts | 54° |
| 2026-05-05 08:32 | 50.95495 | 17.17103 | 36856 ft | 479 kts | 54° |
| 2026-05-05 08:33 | 50.99329 | 17.25752 | 36858 ft | 479 kts | 54° |
| 2026-05-05 08:33 | 51.03155 | 17.34411 | 36860 ft | 479 kts | 54° |
| 2026-05-05 08:34 | 51.06946 | 17.43020 | 36859 ft | 479 kts | 54° |
| 2026-05-05 08:34 | 51.10758 | 17.51708 | 36859 ft | 479 kts | 54° |
| 2026-05-05 08:35 | 51.14563 | 17.60405 | 36862 ft | 479 kts | 54° |
| 2026-05-05 08:35 | 51.18361 | 17.69119 | 36860 ft | 479 kts | 54° |
| 2026-05-05 08:36 | 51.22133 | 17.77800 | 36866 ft | 479 kts | 54° |
| 2026-05-05 08:36 | 51.25918 | 17.86542 | 36866 ft | 479 kts | 54° |
| 2026-05-05 08:37 | 51.29696 | 17.95294 | 36867 ft | 479 kts | 54° |
| 2026-05-05 08:37 | 51.33475 | 18.04079 | 36870 ft | 479 kts | 55° |
| 2026-05-05 08:38 | 51.37241 | 18.12865 | 36870 ft | 479 kts | 55° |
| 2026-05-05 08:38 | 51.40978 | 18.21614 | 36871 ft | 479 kts | 55° |
| 2026-05-05 08:39 | 51.44733 | 18.30433 | 36875 ft | 479 kts | 55° |
| 2026-05-05 08:39 | 51.46605 | 18.34840 | 36752 ft | 479 kts | 55° |
| 2026-05-05 08:39 | 51.48480 | 18.39256 | 36467 ft | 478 kts | 55° |
| 2026-05-05 08:39 | 51.50350 | 18.43674 | 36185 ft | 478 kts | 55° |
| 2026-05-05 08:40 | 51.52222 | 18.48099 | 35916 ft | 479 kts | 55° |
| 2026-05-05 08:40 | 51.54091 | 18.52525 | 35651 ft | 479 kts | 55° |
| 2026-05-05 08:40 | 51.55755 | 18.57155 | 35367 ft | 478 kts | 68° |
| 2026-05-05 08:40 | 51.56796 | 18.62140 | 35115 ft | 478 kts | 74° |
| 2026-05-05 08:41 | 51.57599 | 18.67268 | 34570 ft | 471 kts | 81° |
| 2026-05-05 08:41 | 51.58079 | 18.72512 | 33432 ft | 478 kts | 89° |
| 2026-05-05 08:41 | 51.57864 | 18.77871 | 32247 ft | 481 kts | 100° |
| 2026-05-05 08:41 | 51.57556 | 18.83129 | 31800 ft | 464 kts | 94° |
| 2026-05-05 08:42 | 51.57479 | 18.88176 | 31560 ft | 442 kts | 92° |
| 2026-05-05 08:42 | 51.57468 | 18.93159 | 30727 ft | 451 kts | 91° |
| 2026-05-05 08:42 | 51.57490 | 18.98190 | 29836 ft | 459 kts | 90° |
| 2026-05-05 08:42 | 51.57528 | 19.03331 | 29269 ft | 461 kts | 90° |
| 2026-05-05 08:43 | 51.57575 | 19.08496 | 28752 ft | 462 kts | 90° |
| 2026-05-05 08:43 | 51.57625 | 19.13640 | 28179 ft | 459 kts | 90° |
| 2026-05-05 08:43 | 51.57673 | 19.18743 | 27592 ft | 455 kts | 90° |
| 2026-05-05 08:43 | 51.57719 | 19.23798 | 27008 ft | 450 kts | 90° |
| 2026-05-05 08:44 | 51.57762 | 19.28804 | 26430 ft | 447 kts | 90° |
| 2026-05-05 08:44 | 51.57802 | 19.33789 | 25846 ft | 443 kts | 90° |
| 2026-05-05 08:44 | 51.57840 | 19.38716 | 25277 ft | 440 kts | 90° |
| 2026-05-05 08:44 | 51.57875 | 19.43546 | 24725 ft | 437 kts | 90° |
| 2026-05-05 08:45 | 51.57910 | 19.48412 | 24151 ft | 434 kts | 90° |
| 2026-05-05 08:45 | 51.57941 | 19.53255 | 23584 ft | 431 kts | 90° |
| 2026-05-05 08:45 | 51.57971 | 19.58054 | 22942 ft | 429 kts | 90° |
| 2026-05-05 08:45 | 51.57999 | 19.62833 | 22328 ft | 425 kts | 90° |
| 2026-05-05 08:46 | 51.58024 | 19.67572 | 21704 ft | 422 kts | 90° |
| 2026-05-05 08:46 | 51.58049 | 19.72269 | 21197 ft | 417 kts | 90° |
| 2026-05-05 08:46 | 51.58070 | 19.76912 | 20662 ft | 413 kts | 90° |
| 2026-05-05 08:46 | 51.58091 | 19.81504 | 20129 ft | 410 kts | 90° |
| 2026-05-05 08:47 | 51.58109 | 19.86071 | 19580 ft | 407 kts | 90° |
| 2026-05-05 08:47 | 51.58125 | 19.90531 | 19188 ft | 400 kts | 91° |
| 2026-05-05 08:47 | 51.58137 | 19.94936 | 18986 ft | 388 kts | 91° |
| 2026-05-05 08:47 | 51.58015 | 19.99260 | 18566 ft | 384 kts | 94° |
| 2026-05-05 08:48 | 51.57876 | 20.03528 | 18231 ft | 381 kts | 94° |
| 2026-05-05 08:48 | 51.57746 | 20.07778 | 17801 ft | 381 kts | 94° |
| 2026-05-05 08:48 | 51.57617 | 20.12029 | 17396 ft | 379 kts | 94° |
| 2026-05-05 08:48 | 51.57489 | 20.16246 | 16993 ft | 377 kts | 94° |
| 2026-05-05 08:49 | 51.57361 | 20.20454 | 16594 ft | 375 kts | 95° |
| 2026-05-05 08:49 | 51.57234 | 20.24578 | 16209 ft | 374 kts | 95° |
| 2026-05-05 08:49 | 51.57095 | 20.28744 | 15769 ft | 373 kts | 95° |
| 2026-05-05 08:49 | 51.56955 | 20.32882 | 15395 ft | 370 kts | 95° |
| 2026-05-05 08:50 | 51.56815 | 20.37005 | 15015 ft | 368 kts | 95° |
| 2026-05-05 08:50 | 51.56674 | 20.41100 | 14629 ft | 366 kts | 95° |
| 2026-05-05 08:50 | 51.56850 | 20.45182 | 14202 ft | 369 kts | 77° |
| 2026-05-05 08:50 | 51.57751 | 20.49037 | 13835 ft | 368 kts | 68° |
| 2026-05-05 08:51 | 51.58730 | 20.52837 | 13431 ft | 367 kts | 69° |
| 2026-05-05 08:51 | 51.59691 | 20.56560 | 13031 ft | 365 kts | 69° |
| 2026-05-05 08:51 | 51.60663 | 20.60318 | 12652 ft | 362 kts | 69° |
| 2026-05-05 08:51 | 51.61627 | 20.64038 | 12279 ft | 359 kts | 69° |
| 2026-05-05 08:52 | 51.62581 | 20.67727 | 11897 ft | 354 kts | 69° |
| 2026-05-05 08:52 | 51.63515 | 20.71346 | 11541 ft | 348 kts | 69° |
| 2026-05-05 08:52 | 51.64435 | 20.74915 | 11177 ft | 343 kts | 69° |
| 2026-05-05 08:52 | 51.65341 | 20.78439 | 10821 ft | 338 kts | 69° |
| 2026-05-05 08:53 | 51.66223 | 20.81869 | 10472 ft | 333 kts | 69° |
| 2026-05-05 08:53 | 51.67102 | 20.85292 | 10126 ft | 329 kts | 69° |
| 2026-05-05 08:53 | 51.67970 | 20.88671 | 9779 ft | 325 kts | 68° |
| 2026-05-05 08:53 | 51.69201 | 20.91697 | 9340 ft | 324 kts | 44° |
| 2026-05-05 08:54 | 51.70961 | 20.93929 | 9009 ft | 319 kts | 37° |
| 2026-05-05 08:54 | 51.72713 | 20.96077 | 8698 ft | 314 kts | 37° |
| 2026-05-05 08:54 | 51.74441 | 20.98205 | 8356 ft | 311 kts | 37° |
| 2026-05-05 08:54 | 51.76151 | 21.00311 | 8028 ft | 308 kts | 37° |
| 2026-05-05 08:55 | 51.77846 | 21.02401 | 7702 ft | 306 kts | 37° |
| 2026-05-05 08:55 | 51.79506 | 21.04450 | 7356 ft | 303 kts | 37° |
| 2026-05-05 08:55 | 51.81174 | 21.06509 | 7054 ft | 299 kts | 37° |
| 2026-05-05 08:55 | 51.82822 | 21.08546 | 6752 ft | 297 kts | 37° |
| 2026-05-05 08:56 | 51.84458 | 21.10572 | 6447 ft | 296 kts | 37° |
| 2026-05-05 08:56 | 51.86084 | 21.12584 | 6128 ft | 293 kts | 37° |
| 2026-05-05 08:56 | 51.87694 | 21.14579 | 5769 ft | 292 kts | 37° |
| 2026-05-05 08:56 | 51.89340 | 21.16595 | 5146 ft | 301 kts | 33° |
| 2026-05-05 08:57 | 51.91286 | 21.17763 | 4651 ft | 302 kts | 2° |
| 2026-05-05 08:57 | 51.93306 | 21.17235 | 4337 ft | 293 kts | 335° |
| 2026-05-05 08:57 | 51.95020 | 21.15646 | 4190 ft | 283 kts | 325° |
| 2026-05-05 08:57 | 51.96688 | 21.14034 | 4015 ft | 277 kts | 329° |
| 2026-05-05 08:58 | 51.98369 | 21.12569 | 3838 ft | 272 kts | 330° |
| 2026-05-05 08:58 | 52.00030 | 21.11130 | 3620 ft | 270 kts | 330° |
| 2026-05-05 08:58 | 52.01699 | 21.09681 | 3293 ft | 274 kts | 330° |
| 2026-05-05 08:58 | 52.03354 | 21.08249 | 3049 ft | 260 kts | 330° |
| 2026-05-05 08:59 | 52.04866 | 21.06929 | 2716 ft | 236 kts | 330° |
| 2026-05-05 08:59 | 52.06260 | 21.05711 | 2434 ft | 222 kts | 331° |
| 2026-05-05 08:59 | 52.07560 | 21.04594 | 2149 ft | 201 kts | 331° |
| 2026-05-05 08:59 | 52.08714 | 21.03560 | 1913 ft | 180 kts | 331° |
| 2026-05-05 09:00 | 52.09793 | 21.02633 | 1666 ft | 173 kts | 332° |
| 2026-05-05 09:00 | 52.10865 | 21.01700 | 1425 ft | 175 kts | 331° |
| 2026-05-05 09:00 | 52.11923 | 21.00777 | 1150 ft | 170 kts | 332° |
| 2026-05-05 09:00 | 52.12922 | 20.99909 | 991 ft | 153 kts | 332° |
| 2026-05-05 09:01 | 52.13826 | 20.99112 | 762 ft | 146 kts | 332° |
| 2026-05-05 09:01 | 52.14718 | 20.98313 | 594 ft | 147 kts | 332° |
| 2026-05-05 09:01 | 52.15608 | 20.97553 | 384 ft | 145 kts | 332° |
| 2026-05-05 09:01 | 52.16432 | 20.96829 | 343 ft | 125 kts | 334° |
| 2026-05-05 09:02 | 52.17078 | 20.96273 | 339 ft | 72 kts | 330° |
| 2026-05-05 09:02 | 52.17403 | 20.96064 | 347 ft | 45 kts | 358° |
| 2026-05-05 09:02 | 52.17544 | 20.96066 | 351 ft | 17 kts | 7° |
| 2026-05-05 09:02 | 52.17569 | 20.96087 | 346 ft | 3 kts | 47° |
| 2026-05-05 09:03 | 52.17582 | 20.96138 | 346 ft | 5 kts | 76° |
| 2026-05-05 09:03 | 52.17564 | 20.96244 | 349 ft | 13 kts | 136° |
| 2026-05-05 09:03 | 52.17556 | 20.96254 | 345 ft | 0 kts | 151° |
| 2026-05-05 09:03 | 52.17529 | 20.96278 | 343 ft | 13 kts | 152° |
| 2026-05-05 09:04 | 52.17438 | 20.96405 | 337 ft | 6 kts | 86° |
| 2026-05-05 09:04 | 52.17469 | 20.96520 | 345 ft | 14 kts | 87° |
| 2026-05-05 09:04 | 52.17388 | 20.96638 | 340 ft | 22 kts | 151° |
| 2026-05-05 09:04 | 52.17218 | 20.96787 | 341 ft | 21 kts | 151° |
| 2026-05-05 09:05 | 52.17074 | 20.96914 | 338 ft | 27 kts | 152° |
| 2026-05-05 09:05 | 52.16938 | 20.97032 | 340 ft | 11 kts | 147° |
| 2026-05-05 09:05 | 52.16932 | 20.97084 | 340 ft | 6 kts | 71° |
| 2026-05-05 09:05 | 52.16954 | 20.97177 | 339 ft | 0 kts | 67° |
| 2026-05-05 09:06 | 52.16955 | 20.97182 | 340 ft | 0 kts | 67° |